Time;durP1;ratioP1;P1;durP2;ratioP2;P2;SDS_P1;SDS_P2;PMS_P1;PMS_P2;Temp;Humidity;BMP_temperature;BMP_pressure;BME280_temperature;BME280_humidity;BME280_pressure;Samples;Min_cycle;Max_cycle;Signal;HPM_P1;HPM_P2
2022/06/23 00:01:59;;;;;;;17.63;5.82;;;;;;;22.94;82.65;99797.13;6212729;23;20070;-68
2022/06/23 00:04:31;;;;;;;15.38;5.85;;;;;;;22.91;79.09;99810.41;6212832;23;20000;-69
2022/06/23 00:06:58;;;;;;;11.82;5.20;;;;;;;22.83;77.59;99813.44;6186151;23;20381;-68
2022/06/23 00:09:44;;;;;;;15.15;6.47;;;;;;;22.73;82.66;99803.00;6212971;23;20755;-68
2022/06/23 00:12:12;;;;;;;12.48;6.18;;;;;;;22.70;85.51;99800.72;6212704;23;20059;-68
2022/06/23 00:14:38;;;;;;;10.50;5.80;;;;;;;22.64;87.13;99801.66;6212910;23;19996;-68
2022/06/23 00:17:21;;;;;;;18.45;6.13;;;;;;;22.57;86.81;99802.75;6186217;23;20028;-68
2022/06/23 00:19:47;;;;;;;13.75;6.57;;;;;;;22.41;87.21;99784.16;6212569;23;20004;-69
2022/06/23 00:22:15;;;;;;;11.90;5.57;;;;;;;22.35;87.91;99794.09;6212707;23;20448;-69
2022/06/23 00:24:42;;;;;;;13.55;5.80;;;;;;;22.33;88.41;99809.88;6212476;23;20577;-68
2022/06/23 00:27:14;;;;;;;13.55;5.80;;;;;;;22.24;89.17;99800.25;6185942;23;20044;-67
2022/06/23 00:29:39;;;;;;;12.68;6.45;;;;;;;22.13;90.71;99793.66;6212893;23;20013;-68
2022/06/23 00:32:05;;;;;;;13.68;6.60;;;;;;;22.07;92.67;99789.06;6212656;23;20012;-67
2022/06/23 00:34:38;;;;;;;9.60;6.20;;;;;;;22.13;92.98;99804.56;6212695;23;20410;-67
2022/06/23 00:37:09;;;;;;;9.80;6.05;;;;;;;22.12;90.91;99811.06;6212710;23;20083;-68
2022/06/23 00:39:48;;;;;;;13.30;5.28;;;;;;;22.06;90.65;99816.59;6212532;23;20080;-67
2022/06/23 00:42:25;;;;;;;8.40;5.65;;;;;;;22.05;91.16;99820.38;6212687;23;20004;-67
2022/06/23 00:44:57;;;;;;;9.70;5.88;;;;;;;22.01;88.84;99825.44;6212650;23;20084;-69
2022/06/23 00:47:50;;;;;;;14.90;6.15;;;;;;;21.88;89.03;99814.59;6185978;23;20023;-68
2022/06/23 00:50:18;;;;;;;14.63;6.00;;;;;;;21.90;91.49;99828.03;6169800;23;20004;-68
2022/06/23 00:52:57;;;;;;;8.68;5.43;;;;;;;21.79;89.44;99815.06;6185752;23;20060;-69
2022/06/23 00:55:35;;;;;;;14.93;5.95;;;;;;;21.76;90.36;99826.41;6212116;23;20485;-66
2022/06/23 00:58:21;;;;;;;8.43;5.60;;;;;;;21.69;92.41;99815.53;6212382;23;20016;-67
2022/06/23 01:00:51;;;;;;;13.02;6.30;;;;;;;21.65;92.25;99824.38;6212456;23;20018;-69
2022/06/23 01:03:23;;;;;;;9.68;5.70;;;;;;;21.61;93.57;99825.84;6212571;23;20039;-67
2022/06/23 01:05:59;;;;;;;12.35;5.90;;;;;;;21.55;92.86;99826.72;6212576;23;20004;-67
2022/06/23 01:08:28;;;;;;;13.55;6.05;;;;;;;21.51;95.37;99825.50;6212080;23;20001;-68
2022/06/23 01:11:01;;;;;;;11.23;5.82;;;;;;;21.51;92.21;99830.94;6185438;23;20039;-67
2022/06/23 01:14:21;;;;;;;10.20;5.28;;;;;;;21.45;90.87;99829.06;6185522;23;20000;-68
2022/06/23 01:16:52;;;;;;;8.65;4.82;;;;;;;21.44;90.77;99835.59;6090485;23;20013;-69
2022/06/23 01:19:45;;;;;;;10.75;6.10;;;;;;;21.35;92.69;99834.16;6206561;23;20019;-67
2022/06/23 01:22:23;;;;;;;11.15;5.85;;;;;;;21.30;94.67;99842.97;6212838;23;20023;-68
2022/06/23 01:25:04;;;;;;;11.93;5.90;;;;;;;21.23;94.36;99849.50;6212514;23;20000;-68
2022/06/23 01:27:50;;;;;;;10.52;5.40;;;;;;;21.22;95.19;99853.28;6212586;23;20000;-68
2022/06/23 01:30:20;;;;;;;12.52;6.43;;;;;;;21.15;97.70;99850.56;6185926;23;20012;-68
2022/06/23 01:33:16;;;;;;;11.55;6.40;;;;;;;21.15;96.16;99855.22;6212277;23;20001;-69
2022/06/23 01:35:55;;;;;;;12.38;6.18;;;;;;;21.09;95.69;99853.34;6185775;23;20039;-68
2022/06/23 01:38:46;;;;;;;13.93;6.43;;;;;;;21.01;95.22;99859.84;6185698;23;20050;-67
2022/06/23 01:41:24;;;;;;;8.32;6.10;;;;;;;20.96;96.21;99872.44;6185501;23;20004;-67
2022/06/23 01:44:04;;;;;;;12.75;6.63;;;;;;;20.89;96.63;99875.13;6212173;23;19996;-69
2022/06/23 01:46:36;;;;;;;10.90;6.13;;;;;;;20.88;98.13;99884.38;6211680;23;20369;-68
2022/06/23 01:49:27;;;;;;;11.13;6.53;;;;;;;20.84;97.31;99893.19;6185170;23;20001;-68
2022/06/23 01:51:55;;;;;;;6.55;5.70;;;;;;;20.80;97.98;99894.66;6211867;23;20009;-68
2022/06/23 01:54:20;;;;;;;12.70;7.78;;;;;;;20.74;98.93;99903.66;6211393;23;20005;-68
2022/06/23 01:57:07;;;;;;;12.57;6.30;;;;;;;20.70;100.00;99896.97;6210373;23;20012;-68
2022/06/23 01:59:47;;;;;;;10.50;7.00;;;;;;;20.68;100.00;99909.97;6185199;23;20027;-69
2022/06/23 02:02:50;;;;;;;11.52;7.38;;;;;;;20.71;99.97;99912.25;6212026;23;20004;-67
2022/06/23 02:05:40;;;;;;;9.20;6.63;;;;;;;20.72;99.12;99905.75;6184964;23;20004;-68
2022/06/23 02:08:31;;;;;;;8.57;6.80;;;;;;;20.67;99.58;99905.56;6211826;23;20031;-69
2022/06/23 02:11:29;;;;;;;10.68;6.75;;;;;;;20.57;100.00;99892.34;6211860;23;20011;-67
2022/06/23 02:14:21;;;;;;;10.93;7.18;;;;;;;20.54;100.00;99886.47;6212012;23;20005;-67
2022/06/23 02:17:00;;;;;;;10.02;7.20;;;;;;;20.51;100.00;99881.44;6157714;23;20045;-66
2022/06/23 02:19:26;;;;;;;12.70;7.18;;;;;;;20.49;100.00;99887.09;6211657;23;20001;-67
2022/06/23 02:22:18;;;;;;;9.57;6.70;;;;;;;20.51;100.00;99900.53;6211690;23;20020;-67
2022/06/23 02:25:12;;;;;;;11.40;6.60;;;;;;;20.52;100.00;99902.19;6196048;23;20313;-68
2022/06/23 02:27:48;;;;;;;12.38;7.50;;;;;;;20.47;100.00;99896.53;6185215;23;20015;-67
2022/06/23 02:30:31;;;;;;;10.75;7.18;;;;;;;20.39;100.00;99897.56;6212287;23;20027;-67
2022/06/23 02:33:07;;;;;;;8.88;6.68;;;;;;;20.37;100.00;99896.94;6211683;23;20107;-67
2022/06/23 02:35:39;;;;;;;10.65;6.47;;;;;;;20.37;100.00;99909.75;6211423;23;20001;-67
2022/06/23 02:38:10;;;;;;;16.23;7.50;;;;;;;20.39;100.00;99904.91;6211572;23;20100;-67
2022/06/23 02:40:51;;;;;;;13.68;7.78;;;;;;;20.37;100.00;99912.47;6211238;23;20008;-67
2022/06/23 02:43:44;;;;;;;15.02;7.35;;;;;;;20.29;100.00;99915.38;6211263;23;20009;-68
2022/06/23 02:46:49;;;;;;;11.40;7.50;;;;;;;20.26;100.00;99919.34;6199310;23;20019;-68
2022/06/23 02:49:21;;;;;;;12.98;7.90;;;;;;;20.25;100.00;99905.94;6184928;23;20008;-68
2022/06/23 02:52:08;;;;;;;8.82;7.00;;;;;;;20.17;100.00;99910.53;6211804;23;20012;-68
2022/06/23 02:54:55;;;;;;;9.52;7.68;;;;;;;20.12;100.00;99918.47;6209180;23;20024;-68
2022/06/23 02:57:23;;;;;;;10.55;7.63;;;;;;;20.13;100.00;99914.69;6211571;23;20015;-68
2022/06/23 02:59:52;;;;;;;10.02;7.95;;;;;;;20.03;100.00;99908.75;6209809;23;20044;-67
2022/06/23 03:02:32;;;;;;;11.70;8.55;;;;;;;20.09;100.00;99915.31;6210597;23;20406;-66
2022/06/23 03:05:19;;;;;;;11.98;8.45;;;;;;;20.12;100.00;99915.75;6184626;23;20004;-68
2022/06/23 03:08:09;;;;;;;16.38;7.90;;;;;;;20.13;100.00;99906.53;6185153;23;20009;-67
2022/06/23 03:10:42;;;;;;;12.60;8.73;;;;;;;20.15;100.00;99918.06;6211505;23;20012;-69
2022/06/23 03:13:27;;;;;;;11.45;7.97;;;;;;;20.14;100.00;99913.66;6211414;23;19996;-69
2022/06/23 03:16:25;;;;;;;9.25;7.80;;;;;;;20.13;100.00;99901.06;6211471;23;20036;-69
2022/06/23 03:19:06;;;;;;;11.55;8.25;;;;;;;20.15;100.00;99896.28;6206565;23;20015;-68
2022/06/23 03:21:55;;;;;;;12.00;8.52;;;;;;;20.14;100.00;99916.38;6211238;23;20062;-68
2022/06/23 03:24:35;;;;;;;11.65;7.95;;;;;;;20.06;100.00;99908.34;6211406;23;19999;-69
2022/06/23 03:27:16;;;;;;;13.82;8.82;;;;;;;20.06;100.00;99913.81;6211669;23;20009;-69
2022/06/23 03:29:52;;;;;;;10.75;8.90;;;;;;;20.01;100.00;99920.91;6211242;23;20442;-69
2022/06/23 03:32:41;;;;;;;15.05;8.57;;;;;;;20.06;100.00;99935.59;6212678;23;20079;-69
2022/06/23 03:35:34;;;;;;;17.17;9.27;;;;;;;20.09;100.00;99929.72;6213305;23;20032;-68
2022/06/23 03:41:36;;;;;;;9.98;8.20;;;;;;;20.13;100.00;99917.41;6213591;23;20019;-68
2022/06/23 03:44:04;;;;;;;12.88;8.75;;;;;;;20.11;100.00;99911.34;6213728;23;20692;-67
2022/06/23 03:47:01;;;;;;;13.40;8.65;;;;;;;19.99;100.00;99890.31;6211510;23;20382;-68
2022/06/23 03:49:48;;;;;;;11.20;8.20;;;;;;;20.12;100.00;99918.47;6201212;23;20016;-68
2022/06/23 03:52:34;;;;;;;13.38;9.80;;;;;;;20.08;100.00;99916.31;6213545;23;20329;-68
2022/06/23 03:55:21;;;;;;;15.95;9.77;;;;;;;20.05;100.00;99920.31;6213408;23;20439;-68
2022/06/23 03:58:15;;;;;;;13.95;9.32;;;;;;;20.09;100.00;99940.63;6212155;23;20341;-69
2022/06/23 04:00:45;;;;;;;12.17;8.43;;;;;;;20.08;100.00;99936.22;6166750;23;20016;-67
2022/06/23 04:03:23;;;;;;;13.88;8.30;;;;;;;20.20;100.00;99950.13;6212848;23;20001;-68
2022/06/23 04:05:55;;;;;;;11.88;7.90;;;;;;;20.26;100.00;99945.72;6186707;23;20028;-68
2022/06/23 04:08:29;;;;;;;11.80;7.78;;;;;;;20.29;100.00;99950.78;6211539;23;20058;-67
2022/06/23 04:10:58;;;;;;;9.70;6.40;;;;;;;20.33;100.00;99949.31;6212932;23;20004;-67
2022/06/23 04:13:33;;;;;;;9.57;6.60;;;;;;;20.37;99.80;99956.03;6213105;23;20023;-66
2022/06/23 04:16:10;;;;;;;8.40;6.22;;;;;;;20.40;99.03;99958.31;6213065;23;20088;-68
2022/06/23 04:18:46;;;;;;;8.98;6.38;;;;;;;20.32;98.71;99959.38;6213196;23;20441;-69
2022/06/23 04:21:19;;;;;;;14.63;7.45;;;;;;;20.32;98.62;99974.88;6213296;23;20083;-67
2022/06/23 04:23:51;;;;;;;8.52;6.03;;;;;;;20.33;98.48;99974.66;6213009;23;20003;-68
2022/06/23 04:26:25;;;;;;;7.70;5.78;;;;;;;20.25;97.55;99971.31;6186542;23;20009;-67
2022/06/23 04:28:55;;;;;;;6.78;5.15;;;;;;;20.33;97.42;99982.00;6213081;23;20138;-68
2022/06/23 04:31:40;;;;;;;7.75;5.75;;;;;;;20.39;97.95;99990.19;6213176;23;20012;-68
2022/06/23 04:34:06;;;;;;;6.90;5.55;;;;;;;20.46;96.69;99996.50;6212855;23;20004;-68
2022/06/23 04:36:35;;;;;;;7.30;5.22;;;;;;;20.54;95.85;100009.09;6186200;23;19996;-68
2022/06/23 04:39:23;;;;;;;12.93;6.10;;;;;;;20.45;96.47;99989.38;6212691;23;20001;-64
2022/06/23 04:41:59;;;;;;;10.00;6.75;;;;;;;20.61;97.73;100013.53;6212350;23;20017;-64
2022/06/23 04:44:29;;;;;;;9.23;5.13;;;;;;;20.69;96.50;100007.00;6211691;23;20084;-64
2022/06/23 04:47:18;;;;;;;6.93;5.50;;;;;;;20.77;94.37;100010.41;6210946;23;20009;-63
2022/06/23 04:49:50;;;;;;;6.05;4.47;;;;;;;20.85;91.64;100003.91;6211857;23;20040;-64
2022/06/23 04:52:40;;;;;;;8.95;5.00;;;;;;;20.87;91.39;100012.72;6212325;23;20020;-63
2022/06/23 04:55:15;;;;;;;9.20;4.93;;;;;;;20.83;92.16;100008.75;6211720;23;20156;-62
2022/06/23 04:57:46;;;;;;;5.43;4.68;;;;;;;20.87;90.73;100010.00;6211856;23;20023;-63
2022/06/23 05:00:25;;;;;;;9.88;4.80;;;;;;;20.89;90.24;100016.09;6212108;23;20012;-62
2022/06/23 05:02:58;;;;;;;14.20;4.65;;;;;;;20.93;89.98;100014.63;6212299;23;20005;-65
2022/06/23 05:05:29;;;;;;;8.07;4.47;;;;;;;20.96;88.02;100011.50;6212198;23;20005;-64
2022/06/23 05:07:57;;;;;;;4.82;3.63;;;;;;;21.00;85.19;100016.34;6185416;23;20015;-63
2022/06/23 05:10:28;;;;;;;9.50;4.18;;;;;;;21.02;85.32;100016.13;6211892;23;20004;-63
2022/06/23 05:13:07;;;;;;;5.75;3.58;;;;;;;21.11;84.85;100018.44;6212218;23;20016;-63
2022/06/23 05:15:48;;;;;;;4.93;3.60;;;;;;;21.21;81.87;100031.63;6211550;23;20230;-63
2022/06/23 05:18:15;;;;;;;6.85;3.78;;;;;;;21.25;80.02;100033.75;6212113;23;20008;-63
2022/06/23 05:21:07;;;;;;;7.18;3.90;;;;;;;21.30;79.39;100046.75;6211936;23;20008;-63
2022/06/23 05:23:54;;;;;;;5.80;4.00;;;;;;;21.32;78.01;100056.44;6211839;23;20035;-63
2022/06/23 05:26:19;;;;;;;6.13;3.28;;;;;;;21.38;79.47;100060.19;6212281;23;20381;-64
2022/06/23 05:28:52;;;;;;;6.60;3.95;;;;;;;21.55;78.25;100069.63;6212349;23;20000;-62
2022/06/23 05:31:25;;;;;;;6.38;3.70;;;;;;;21.54;78.62;100065.22;6212031;23;20013;-62
2022/06/23 05:33:54;;;;;;;8.50;4.13;;;;;;;21.54;79.64;100076.16;6212568;23;20424;-64
2022/06/23 05:36:24;;;;;;;8.43;3.83;;;;;;;21.63;76.86;100081.16;6212392;23;20225;-64
2022/06/23 05:39:05;;;;;;;4.35;2.83;;;;;;;21.84;72.38;100080.97;6185436;23;20058;-64
2022/06/23 05:41:36;;;;;;;4.88;2.88;;;;;;;22.05;69.49;100085.31;6211874;23;20101;-63
2022/06/23 05:44:08;;;;;;;3.08;2.22;;;;;;;22.26;64.30;100079.59;6212065;23;20088;-64
2022/06/23 05:46:40;;;;;;;4.10;2.20;;;;;;;22.50;63.39;100092.56;6211768;23;20013;-64
2022/06/23 05:49:23;;;;;;;1.95;1.65;;;;;;;22.69;61.11;100097.09;6211949;23;20020;-64
2022/06/23 05:51:54;;;;;;;7.10;2.30;;;;;;;22.85;58.78;100082.06;6212021;23;20004;-63
2022/06/23 05:54:41;;;;;;;4.45;2.42;;;;;;;23.08;55.85;100088.66;6211652;23;20418;-61
2022/06/23 05:57:30;;;;;;;5.00;2.20;;;;;;;23.24;56.27;100088.16;6211837;23;20013;-65
2022/06/23 06:00:17;;;;;;;4.88;2.10;;;;;;;23.31;56.19;100096.34;6211432;23;20013;-64
2022/06/23 06:02:47;;;;;;;3.70;1.88;;;;;;;23.35;56.47;100089.34;6211658;23;20008;-73
2022/06/23 06:05:27;;;;;;;3.95;1.85;;;;;;;23.48;55.36;100100.19;6211433;23;20008;-73
2022/06/23 06:07:53;;;;;;;7.40;1.90;;;;;;;23.63;56.19;100101.53;6185509;23;20028;-74
2022/06/23 06:10:22;;;;;;;2.47;2.22;;;;;;;23.82;54.55;100100.53;6211936;23;20365;-71
2022/06/23 06:12:50;;;;;;;6.07;2.50;;;;;;;23.90;53.91;100094.72;6185062;23;20009;-74
2022/06/23 06:15:22;;;;;;;5.00;2.30;;;;;;;23.94;52.79;100097.91;6211278;23;20020;-74
2022/06/23 06:17:51;;;;;;;3.78;2.22;;;;;;;23.98;52.85;100089.00;6211314;23;20004;-73
2022/06/23 06:20:23;;;;;;;2.88;2.25;;;;;;;24.10;52.28;100100.91;6211372;23;20020;-73
2022/06/23 06:23:03;;;;;;;6.72;2.13;;;;;;;24.19;53.05;100106.91;6184858;23;20008;-73
2022/06/23 06:25:35;;;;;;;3.17;2.10;;;;;;;24.32;52.40;100107.59;6211171;23;20000;-73
2022/06/23 06:28:15;;;;;;;5.93;2.20;;;;;;;24.44;51.72;100092.06;6211052;23;20519;-73
2022/06/23 06:30:47;;;;;;;7.35;2.40;;;;;;;24.68;51.22;100105.94;6211103;23;20012;-73
2022/06/23 06:33:28;;;;;;;7.53;2.28;;;;;;;24.81;49.98;100103.84;6211044;23;20083;-73
2022/06/23 06:35:55;;;;;;;8.88;2.10;;;;;;;24.94;49.95;100109.16;6211280;23;20019;-72
2022/06/23 06:38:23;;;;;;;4.63;2.28;;;;;;;25.11;50.50;100123.09;6211175;23;20004;-63
2022/06/23 06:40:54;;;;;;;2.58;1.80;;;;;;;25.26;49.87;100131.72;6211177;23;20146;-63
2022/06/23 06:43:24;;;;;;;3.10;1.70;;;;;;;25.41;48.46;100118.44;6210862;23;20012;-62
2022/06/23 06:45:49;;;;;;;3.00;2.08;;;;;;;25.62;46.82;100115.09;6210437;23;20058;-63
2022/06/23 06:48:23;;;;;;;3.55;2.13;;;;;;;25.81;46.35;100117.53;6209910;23;20514;-63
2022/06/23 06:51:06;;;;;;;5.43;2.08;;;;;;;25.94;45.26;100120.03;6210914;23;20006;-63
2022/06/23 06:53:36;;;;;;;2.60;2.00;;;;;;;26.04;45.21;100124.97;6210935;23;20079;-63
2022/06/23 06:56:28;;;;;;;3.88;1.92;;;;;;;26.09;44.13;100128.66;6210625;23;20024;-64
2022/06/23 06:59:14;;;;;;;4.57;1.80;;;;;;;26.17;44.07;100132.97;6197943;23;20020;-63
2022/06/23 07:01:42;;;;;;;4.68;2.35;;;;;;;26.12;43.47;100125.44;6210775;23;20504;-64
2022/06/23 07:04:19;;;;;;;2.75;1.98;;;;;;;26.20;42.17;100135.25;6210942;23;20007;-65
2022/06/23 07:06:49;;;;;;;3.28;1.80;;;;;;;26.20;42.32;100135.25;6184121;23;20011;-63
2022/06/23 07:09:51;;;;;;;4.25;1.83;;;;;;;26.17;41.20;100141.22;6210854;23;20008;-63
2022/06/23 07:12:31;;;;;;;3.10;1.95;;;;;;;26.17;42.03;100142.06;6184055;23;20066;-63
2022/06/23 07:15:41;;;;;;;2.92;2.10;;;;;;;26.23;42.16;100132.84;6210782;23;20012;-63
2022/06/23 07:18:35;;;;;;;3.55;1.70;;;;;;;26.30;42.24;100147.31;6184086;23;20008;-63
2022/06/23 07:21:12;;;;;;;6.95;2.17;;;;;;;26.34;42.23;100147.66;6211002;23;20008;-63
2022/06/23 07:23:49;;;;;;;3.20;2.22;;;;;;;26.33;42.16;100141.34;6184372;23;20002;-64
2022/06/23 07:26:43;;;;;;;4.20;2.10;;;;;;;26.41;41.18;100140.13;6211248;23;20001;-63
2022/06/23 07:29:29;;;;;;;7.00;2.35;;;;;;;26.43;42.22;100135.22;6211175;23;20024;-64
2022/06/23 07:32:01;;;;;;;7.90;2.20;;;;;;;26.45;42.47;100146.81;6210574;23;20016;-63
2022/06/23 07:34:32;;;;;;;4.40;1.77;;;;;;;26.49;42.32;100146.09;6210510;23;20009;-64
2022/06/23 07:36:59;;;;;;;2.78;2.10;;;;;;;26.54;41.69;100154.44;6184235;23;20087;-63
2022/06/23 07:39:33;;;;;;;5.90;2.40;;;;;;;26.58;40.25;100156.72;6184038;23;20013;-64
2022/06/23 07:42:09;;;;;;;4.10;1.80;;;;;;;26.61;39.58;100156.25;6210922;23;20477;-62
2022/06/23 07:44:41;;;;;;;3.92;2.10;;;;;;;26.68;39.46;100149.56;6183958;23;20012;-64
2022/06/23 07:47:07;;;;;;;1.92;1.55;;;;;;;26.84;39.52;100150.69;6184142;23;20016;-64
2022/06/23 07:49:33;;;;;;;3.78;1.90;;;;;;;27.02;39.57;100156.84;6184059;23;20449;-62
2022/06/23 07:52:00;;;;;;;5.18;1.98;;;;;;;27.13;38.95;100157.91;6210495;23;20430;-63
2022/06/23 07:54:27;;;;;;;3.03;2.08;;;;;;;27.29;39.31;100159.91;6210452;23;20016;-62
2022/06/23 07:56:53;;;;;;;4.05;1.70;;;;;;;27.59;38.18;100149.41;6210814;23;20059;-64
2022/06/23 07:59:26;;;;;;;3.42;1.92;;;;;;;27.61;39.02;100144.50;6210761;23;20027;-63
2022/06/23 08:01:53;;;;;;;7.18;2.10;;;;;;;27.67;38.60;100143.50;6210742;23;20504;-64
2022/06/23 08:04:32;;;;;;;3.00;1.85;;;;;;;27.74;38.89;100145.03;6208866;23;20088;-63
2022/06/23 08:07:03;;;;;;;2.10;1.83;;;;;;;27.79;38.55;100142.34;6210559;23;20000;-64
2022/06/23 08:09:46;;;;;;;6.65;2.08;;;;;;;27.85;37.79;100141.38;6210517;23;19996;-64
2022/06/23 08:18:03;;;;;;;1.75;1.48;;;;;;;27.92;35.71;100142.03;6211408;23;20543;-63
2022/06/23 08:20:33;;;;;;;3.13;2.00;;;;;;;27.93;35.83;100149.25;6212229;23;20134;-62
2022/06/23 08:23:02;;;;;;;3.25;1.52;;;;;;;27.91;35.92;100148.66;6212437;23;20119;-63
2022/06/23 08:25:28;;;;;;;2.88;1.60;;;;;;;27.90;36.10;100146.13;6212330;23;20001;-63
2022/06/23 08:27:55;;;;;;;4.40;1.65;;;;;;;27.89;35.26;100161.84;6212532;23;20004;-63
2022/06/23 08:30:23;;;;;;;5.18;1.70;;;;;;;28.00;35.55;100152.66;6212304;23;20020;-64
2022/06/23 08:32:50;;;;;;;2.20;1.80;;;;;;;28.12;35.42;100152.56;6185887;23;20406;-63
2022/06/23 08:35:40;;;;;;;2.58;1.75;;;;;;;28.14;34.49;100151.22;6212639;23;20394;-64
2022/06/23 08:38:20;;;;;;;2.15;1.77;;;;;;;28.26;34.05;100154.72;6212426;23;20046;-62
2022/06/23 08:40:51;;;;;;;3.17;1.88;;;;;;;28.34;34.01;100148.75;6185809;23;20551;-65
2022/06/23 08:43:22;;;;;;;3.10;1.98;;;;;;;28.49;33.43;100148.16;6212322;23;20000;-63
2022/06/23 08:45:59;;;;;;;3.22;1.42;;;;;;;28.49;33.71;100137.97;6212065;23;20012;-63
2022/06/23 08:48:39;;;;;;;2.58;1.50;;;;;;;28.61;34.10;100139.75;6212349;23;20079;-63
2022/06/23 08:51:20;;;;;;;4.53;2.05;;;;;;;28.65;33.85;100138.16;6185384;23;20013;-62
2022/06/23 08:54:05;;;;;;;2.83;1.75;;;;;;;28.54;33.00;100129.75;6185339;23;20020;-64
2022/06/23 08:56:48;;;;;;;3.95;1.67;;;;;;;28.59;33.66;100140.03;6209688;23;20020;-64
2022/06/23 08:59:37;;;;;;;1.70;1.25;;;;;;;28.57;33.32;100139.47;6212796;23;20094;-64
2022/06/23 09:02:17;;;;;;;2.38;1.63;;;;;;;28.42;32.91;100112.47;6211941;23;20009;-63
2022/06/23 09:05:17;;;;;;;3.75;1.38;;;;;;;28.45;33.67;100142.34;6185218;23;20031;-63
2022/06/23 09:08:01;;;;;;;4.35;1.45;;;;;;;28.52;33.29;100148.50;6211978;23;20008;-63
2022/06/23 09:10:45;;;;;;;1.60;1.38;;;;;;;28.62;32.50;100141.47;6185530;23;20000;-64
2022/06/23 09:13:29;;;;;;;;;;;;;;;28.70;31.77;100150.13;6185748;23;20426;-62
2022/06/23 09:16:02;;;;;;;1.60;1.35;;;;;;;28.82;31.69;100142.53;6211893;23;20525;-63
2022/06/23 09:19:05;;;;;;;3.47;1.40;;;;;;;28.82;32.26;100144.47;6211912;23;20039;-64
2022/06/23 09:22:00;;;;;;;2.05;1.60;;;;;;;28.92;31.80;100141.81;6211857;23;20016;-63
2022/06/23 09:24:44;;;;;;;2.13;1.65;;;;;;;28.84;31.28;100150.56;6211811;23;20028;-62
2022/06/23 09:27:33;;;;;;;5.32;1.67;;;;;;;28.90;31.44;100144.00;6211777;23;20008;-64
2022/06/23 09:30:05;;;;;;;1.63;1.30;;;;;;;28.82;30.19;100147.22;6211698;23;20489;-63
2022/06/23 09:32:58;;;;;;;2.13;1.35;;;;;;;28.79;31.00;100150.50;6185078;23;20024;-63
2022/06/23 09:35:48;;;;;;;3.53;1.30;;;;;;;28.81;31.08;100157.44;6211854;23;20012;-64
2022/06/23 09:38:45;;;;;;;1.40;1.30;;;;;;;29.01;30.42;100162.38;6212361;23;20009;-64
2022/06/23 09:41:28;;;;;;;1.30;1.15;;;;;;;29.07;30.64;100151.16;6184731;23;20016;-63
2022/06/23 09:44:21;;;;;;;2.33;1.20;;;;;;;29.11;30.25;100157.81;6211849;23;20009;-63
2022/06/23 09:47:03;;;;;;;1.95;1.35;;;;;;;29.06;29.63;100159.69;6211491;23;20388;-63
2022/06/23 09:49:46;;;;;;;2.55;1.10;;;;;;;29.08;29.88;100152.00;6211522;23;20507;-63
2022/06/23 09:52:41;;;;;;;3.67;1.10;;;;;;;29.07;29.99;100150.31;6211484;23;20004;-64
2022/06/23 09:55:23;;;;;;;;;;;;;;;29.05;29.20;100158.03;6211944;23;20677;-63
2022/06/23 09:58:29;;;;;;;2.25;1.00;;;;;;;28.96;29.14;100142.97;6210953;23;19912;-64
2022/06/23 10:01:19;;;;;;;4.47;1.40;;;;;;;29.03;29.96;100151.88;6184597;23;20016;-64
2022/06/23 10:03:53;;;;;;;3.53;1.00;;;;;;;28.96;29.27;100154.88;6211632;23;20441;-63
2022/06/23 10:06:22;;;;;;;1.75;0.88;;;;;;;28.99;29.00;100159.88;6184459;23;20315;-63
2022/06/23 10:09:33;;;;;;;2.47;1.20;;;;;;;28.80;28.91;100157.69;6209587;23;20623;-64
2022/06/23 10:12:01;;;;;;;3.50;1.40;;;;;;;28.84;29.24;100167.13;6206702;23;20066;-64
2022/06/23 10:14:35;;;;;;;1.33;1.15;;;;;;;28.86;28.83;100164.94;6211034;23;20019;-64
2022/06/23 10:17:19;;;;;;;2.33;1.05;;;;;;;28.87;29.71;100158.31;6210750;23;20005;-64
2022/06/23 10:19:59;;;;;;;3.05;1.00;;;;;;;28.86;30.00;100149.22;6210737;23;20009;-64
2022/06/23 10:22:51;;;;;;;4.68;1.48;;;;;;;28.82;30.18;100141.72;6210434;23;20103;-65
2022/06/23 10:25:31;;;;;;;2.20;1.25;;;;;;;28.91;29.79;100151.19;6210594;23;19996;-63
2022/06/23 10:28:24;;;;;;;2.97;1.33;;;;;;;28.94;29.48;100148.75;6184232;23;20008;-62
2022/06/23 10:31:34;;;;;;;1.23;1.00;;;;;;;28.94;29.15;100140.47;6210956;23;20016;-63
2022/06/23 10:34:23;;;;;;;2.70;1.23;;;;;;;29.08;29.16;100146.47;6210880;23;20087;-64
2022/06/23 10:36:52;;;;;;;2.55;1.20;;;;;;;29.10;29.55;100144.25;6210732;23;20005;-64
2022/06/23 10:39:42;;;;;;;2.85;1.20;;;;;;;29.11;29.19;100134.91;6183876;23;20004;-64
2022/06/23 10:42:26;;;;;;;4.15;1.40;;;;;;;29.09;29.93;100137.94;6210045;23;20329;-63
2022/06/23 10:45:16;;;;;;;1.83;1.15;;;;;;;29.14;29.33;100140.72;6210559;23;20341;-64
2022/06/23 10:48:05;;;;;;;3.88;1.50;;;;;;;29.13;29.82;100144.59;6210353;23;20446;-64
2022/06/23 10:51:06;;;;;;;3.33;1.25;;;;;;;29.13;29.83;100132.69;6210860;23;20011;-64
2022/06/23 10:53:37;;;;;;;1.35;1.20;;;;;;;29.18;29.49;100135.53;6211262;23;20005;-65
2022/06/23 10:56:21;;;;;;;5.18;1.15;;;;;;;29.18;29.83;100135.53;6210957;23;20035;-65
2022/06/23 10:59:02;;;;;;;1.58;1.20;;;;;;;29.18;29.56;100136.34;6211218;23;20012;-64
2022/06/23 11:01:55;;;;;;;3.60;1.50;;;;;;;29.23;29.71;100138.31;6210929;23;20012;-64
2022/06/23 11:04:38;;;;;;;4.65;1.15;;;;;;;29.26;29.74;100144.19;6210960;23;20378;-64
2022/06/23 11:07:25;;;;;;;1.15;1.02;;;;;;;29.33;29.63;100136.50;6209279;23;20400;-64
2022/06/23 11:09:59;;;;;;;2.80;0.93;;;;;;;29.29;28.94;100124.31;6211097;23;20083;-64
2022/06/23 11:12:33;;;;;;;2.80;1.50;;;;;;;29.33;28.70;100127.38;6210765;23;20016;-62
2022/06/23 11:15:18;;;;;;;4.88;1.30;;;;;;;29.26;29.06;100135.03;6184253;23;20012;-63
2022/06/23 11:18:16;;;;;;;1.63;1.30;;;;;;;29.28;28.72;100124.59;6210634;23;20016;-63
2022/06/23 11:20:59;;;;;;;3.25;1.30;;;;;;;29.34;28.91;100123.53;6129183;23;20403;-63
2022/06/23 11:23:30;;;;;;;3.60;1.00;;;;;;;29.38;28.84;100124.69;6210723;23;20087;-64
2022/06/23 11:26:08;;;;;;;3.65;1.00;;;;;;;29.27;28.75;100114.63;6210753;23;20075;-63
2022/06/23 11:28:58;;;;;;;3.60;1.30;;;;;;;29.26;29.18;100126.75;6210834;23;20019;-62
2022/06/23 11:31:53;;;;;;;3.13;1.00;;;;;;;29.22;29.39;100137.53;6210462;23;20021;-62
2022/06/23 11:34:40;;;;;;;1.40;1.10;;;;;;;29.21;28.55;100133.06;6210717;23;20562;-63
2022/06/23 11:37:29;;;;;;;1.40;0.90;;;;;;;29.24;29.06;100140.84;6210779;23;20381;-62
2022/06/23 11:40:19;;;;;;;2.63;0.88;;;;;;;29.27;28.69;100132.03;6183939;23;20013;-63
2022/06/23 11:43:06;;;;;;;2.25;0.90;;;;;;;29.31;28.30;100124.88;6210567;23;20079;-64
2022/06/23 11:45:56;;;;;;;1.23;1.13;;;;;;;29.38;28.14;100119.16;6210659;23;20369;-63
2022/06/23 11:49:11;;;;;;;0.90;0.80;;;;;;;29.44;28.54;100118.09;6183787;23;20533;-64
2022/06/23 11:52:07;;;;;;;1.17;0.90;;;;;;;29.52;28.40;100114.84;6158085;23;20118;-63
2022/06/23 11:54:57;;;;;;;3.08;1.50;;;;;;;29.50;29.11;100111.53;6212412;23;20015;-63
2022/06/23 11:57:55;;;;;;;1.20;0.93;;;;;;;29.60;28.48;100126.25;6212676;23;20019;-63
2022/06/23 12:00:55;;;;;;;5.22;1.65;;;;;;;29.60;28.63;100123.50;6213006;23;20028;-63
2022/06/23 12:03:29;;;;;;;1.20;1.10;;;;;;;29.68;27.98;100112.00;6172856;23;20012;-62
2022/06/23 12:06:22;;;;;;;;;;;;;;;29.73;28.13;100114.78;6213127;23;20001;-64
2022/06/23 12:09:01;;;;;;;2.78;1.23;;;;;;;29.82;27.92;100102.16;6212544;23;19908;-64
2022/06/23 12:11:30;;;;;;;8.18;1.30;;;;;;;29.82;28.31;100120.69;6212508;23;20012;-63
2022/06/23 12:13:58;;;;;;;3.92;1.20;;;;;;;29.86;28.49;100116.28;6212367;23;20084;-64
2022/06/23 12:16:24;;;;;;;7.38;1.60;;;;;;;29.89;28.13;100119.34;6212445;23;20009;-64
2022/06/23 12:18:53;;;;;;;9.32;1.35;;;;;;;29.94;27.89;100118.56;6212577;23;20090;-63
2022/06/23 12:21:50;;;;;;;3.53;1.10;;;;;;;30.00;28.13;100115.56;6212455;23;20047;-63
2022/06/23 12:24:32;;;;;;;5.40;1.58;;;;;;;30.01;28.74;100113.63;6212296;23;20005;-62
2022/06/23 12:27:34;;;;;;;2.80;1.30;;;;;;;30.01;28.44;100108.09;6212524;23;20075;-63
2022/06/23 12:30:02;;;;;;;5.00;1.10;;;;;;;30.00;27.92;100112.81;6212230;23;20023;-64
2022/06/23 12:32:45;;;;;;;2.75;1.40;;;;;;;30.03;27.25;100112.28;6212105;23;20013;-64